createdAt,value
2018-09-21T00:01:25.581Z,73.70
2018-09-21T00:03:59.800Z,74.47
2018-09-21T00:06:29.076Z,74.35
2018-09-21T00:08:58.397Z,74.55
2018-09-21T00:11:27.750Z,75.67
2018-09-21T00:13:57.212Z,75.42
2018-09-21T00:16:26.501Z,73.92
2018-09-21T00:18:55.738Z,74.59
2018-09-21T00:21:24.904Z,74.36
2018-09-21T00:23:53.784Z,75.16
2018-09-21T00:26:22.760Z,74.75
2018-09-21T00:28:51.631Z,75.68
2018-09-21T00:31:20.499Z,75.48
2018-09-21T00:33:49.480Z,76.93
2018-09-21T00:36:18.455Z,75.83
2018-09-21T00:38:47.319Z,75.36
2018-09-21T00:41:16.248Z,74.67
2018-09-21T00:43:45.119Z,74.85
2018-09-21T00:46:13.991Z,74.81
2018-09-21T00:48:43.073Z,76.45
2018-09-21T00:51:11.964Z,75.28
2018-09-21T00:53:40.943Z,75.71
2018-09-21T00:56:09.863Z,76.29
2018-09-21T00:58:38.731Z,76.23
2018-09-21T01:01:07.645Z,76.37
2018-09-21T01:03:36.521Z,76.14
2018-09-21T01:06:05.416Z,75.97
2018-09-21T01:08:34.334Z,76.87
2018-09-21T01:11:03.289Z,76.25
2018-09-21T01:13:32.245Z,76.66
2018-09-21T01:16:01.207Z,76.73
2018-09-21T01:18:30.088Z,77.35
2018-09-21T01:20:58.953Z,77.66
2018-09-21T01:23:27.848Z,77.90
2018-09-21T01:25:56.803Z,78.04
2018-09-21T01:28:25.785Z,79.00
2018-09-21T01:31:01.159Z,78.00
2018-09-21T01:33:30.032Z,78.01
2018-09-21T01:35:58.925Z,77.24
2018-09-21T01:38:27.833Z,78.53
2018-09-21T01:40:56.720Z,77.77
2018-09-21T01:43:25.624Z,79.21
2018-09-21T01:45:54.624Z,78.43
2018-09-21T01:48:23.549Z,79.24
2018-09-21T01:50:52.412Z,78.76
2018-09-21T01:53:21.336Z,80.44
2018-09-21T01:55:50.199Z,79.81
2018-09-21T01:58:19.246Z,79.59
2018-09-21T02:00:48.339Z,80.10
2018-09-21T02:03:17.249Z,79.81
2018-09-21T02:05:46.139Z,79.93
2018-09-21T02:08:15.079Z,80.42
2018-09-21T02:10:43.976Z,80.40
2018-09-21T02:13:12.835Z,80.81
2018-09-21T02:15:41.735Z,80.98
2018-09-21T02:18:10.590Z,80.82
2018-09-21T02:20:39.439Z,81.17
2018-09-21T02:23:08.320Z,80.55
2018-09-21T02:25:37.319Z,81.12
2018-09-21T02:28:06.204Z,80.93
2018-09-21T02:30:35.352Z,81.02
2018-09-21T02:33:04.208Z,80.91
2018-09-21T02:35:33.096Z,81.04
2018-09-21T02:38:02.308Z,81.04
2018-09-21T02:40:31.213Z,81.25
2018-09-21T02:43:00.105Z,82.64
2018-09-21T02:45:29.042Z,82.57
2018-09-21T02:47:57.996Z,82.73
2018-09-21T02:50:26.925Z,82.09
2018-09-21T02:52:55.906Z,81.53
2018-09-21T02:55:24.813Z,80.83
2018-09-21T02:57:53.709Z,81.37
2018-09-21T03:00:22.660Z,81.05
2018-09-21T03:02:51.672Z,80.52
2018-09-21T03:05:20.535Z,81.71
2018-09-21T03:07:49.820Z,81.58
2018-09-21T03:10:19.101Z,82.09
2018-09-21T03:12:48.416Z,81.84
2018-09-21T03:15:17.656Z,81.99
2018-09-21T03:17:46.996Z,81.66
2018-09-21T03:20:16.313Z,82.10
2018-09-21T03:22:45.603Z,82.50
2018-09-21T03:25:14.800Z,82.12
2018-09-21T03:27:44.211Z,81.48
2018-09-21T03:30:13.717Z,82.81
2018-09-21T03:32:42.916Z,83.31
2018-09-21T03:35:12.225Z,83.07
2018-09-21T03:37:41.596Z,83.64
2018-09-21T03:40:10.863Z,83.94
2018-09-21T03:42:40.381Z,83.38
2018-09-21T03:45:09.563Z,82.63
2018-09-21T03:47:38.875Z,83.84
2018-09-21T03:50:08.449Z,84.66
2018-09-21T03:52:37.576Z,83.43
2018-09-21T03:55:07.436Z,83.58
2018-09-21T03:57:36.702Z,82.65
2018-09-21T04:00:06.612Z,83.10
2018-09-21T04:02:35.872Z,83.89
2018-09-21T04:05:05.805Z,84.18
2018-09-21T04:07:35.119Z,83.92
2018-09-21T04:10:04.420Z,83.47
2018-09-21T04:12:33.738Z,84.01
2018-09-21T04:15:02.919Z,84.15
2018-09-21T04:17:32.219Z,84.32
2018-09-21T04:20:02.109Z,83.24
2018-09-21T04:22:31.813Z,84.26
2018-09-21T04:25:01.167Z,83.89
2018-09-21T04:27:30.372Z,84.11
2018-09-21T04:29:59.870Z,85.30
2018-09-21T04:32:28.822Z,84.95
2018-09-21T04:34:57.860Z,84.98
2018-09-21T04:37:26.756Z,85.53
2018-09-21T04:39:55.665Z,85.46
2018-09-21T04:42:24.540Z,84.75
2018-09-21T04:44:53.412Z,84.23
2018-09-21T04:47:22.281Z,84.38
2018-09-21T04:49:51.529Z,85.48
2018-09-21T04:52:21.176Z,86.49
2018-09-21T04:54:50.093Z,86.02
2018-09-21T04:57:19.263Z,85.16
2018-09-21T04:59:48.571Z,84.81
2018-09-21T05:02:18.373Z,85.09
2018-09-21T05:04:47.855Z,85.09
2018-09-21T05:07:17.139Z,84.74
2018-09-21T05:09:46.355Z,85.16
2018-09-21T05:12:15.572Z,85.46
2018-09-21T05:14:44.853Z,86.64
2018-09-21T05:17:15.435Z,85.38
2018-09-21T05:19:44.499Z,85.58
2018-09-21T05:22:13.583Z,85.43
2018-09-21T05:24:42.449Z,84.95
2018-09-21T05:27:11.329Z,85.30
2018-09-21T05:29:40.307Z,84.79
2018-09-21T05:32:09.550Z,84.73
2018-09-21T05:34:40.226Z,83.19
2018-09-21T05:37:11.539Z,82.81
2018-09-21T05:39:40.872Z,82.69
2018-09-21T05:42:10.190Z,83.95
2018-09-21T05:44:39.484Z,83.69
2018-09-21T05:47:08.870Z,83.25
2018-09-21T05:49:38.726Z,82.44
2018-09-21T05:52:07.964Z,81.34
2018-09-21T05:54:37.407Z,80.05
2018-09-21T05:57:06.298Z,80.00
2018-09-21T05:59:35.161Z,79.04
2018-09-21T06:02:04.085Z,77.97
2018-09-21T06:04:32.944Z,76.72
2018-09-21T06:07:01.881Z,76.52
2018-09-21T06:09:30.837Z,75.52
2018-09-21T06:11:59.787Z,75.89
2018-09-21T06:14:28.747Z,75.42
2018-09-21T06:16:57.639Z,73.10
2018-09-21T06:19:27.251Z,70.65
2018-09-21T06:21:56.107Z,68.00
2018-09-21T06:24:25.010Z,65.18
2018-09-21T06:26:53.879Z,64.63
2018-09-21T06:29:22.820Z,65.07
2018-09-21T06:31:51.802Z,64.91
2018-09-21T06:34:20.764Z,65.53
2018-09-21T06:36:49.735Z,65.74
2018-09-21T06:39:18.621Z,67.12
2018-09-21T06:41:47.573Z,66.04
2018-09-21T06:44:16.457Z,63.47
2018-09-21T06:46:45.522Z,62.42
2018-09-21T06:49:14.475Z,62.44
2018-09-21T06:51:43.516Z,62.76
2018-09-21T06:54:12.383Z,63.49
2018-09-21T06:56:41.298Z,63.50
2018-09-21T06:59:10.191Z,61.94
2018-09-21T07:01:39.081Z,62.15
2018-09-21T07:04:08.414Z,61.29
2018-09-21T07:06:37.394Z,60.52
2018-09-21T07:09:10.217Z,59.32
2018-09-21T07:11:39.153Z,56.00
2018-09-21T07:14:08.023Z,53.24
2018-09-21T07:16:36.981Z,52.74
2018-09-21T07:19:06.088Z,53.16
2018-09-21T07:21:35.097Z,53.54
2018-09-21T07:24:03.992Z,53.25
2018-09-21T07:26:32.871Z,52.87
2018-09-21T07:29:01.851Z,50.79
2018-09-21T07:31:30.716Z,50.99
2018-09-21T07:33:59.686Z,50.70
2018-09-21T07:36:28.631Z,49.24
2018-09-21T07:38:57.883Z,48.11
2018-09-21T07:41:26.828Z,48.92
2018-09-21T07:43:55.731Z,49.20
2018-09-21T07:46:24.919Z,47.61
2018-09-21T07:48:53.871Z,47.85
2018-09-21T07:51:22.760Z,47.45
2018-09-21T07:53:51.648Z,47.28
2018-09-21T07:56:20.653Z,47.33
2018-09-21T07:58:49.557Z,47.51
2018-09-21T08:01:18.506Z,47.19
2018-09-21T08:03:47.448Z,46.69
2018-09-21T08:06:16.359Z,47.60
2018-09-21T08:08:45.316Z,46.13
2018-09-21T08:11:14.684Z,43.80
2018-09-21T08:13:43.557Z,46.70
2018-09-21T08:16:12.440Z,43.65
2018-09-21T08:18:41.345Z,42.57
2018-09-21T08:21:10.208Z,42.63
2018-09-21T08:23:39.090Z,45.73
2018-09-21T08:26:08.052Z,46.05
2018-09-21T08:28:36.948Z,47.05
2018-09-21T08:31:06.739Z,46.09
2018-09-21T08:33:35.689Z,47.45
2018-09-21T08:36:04.600Z,47.72
2018-09-21T08:38:33.512Z,45.70
2018-09-21T08:41:02.595Z,46.48
2018-09-21T08:43:31.460Z,45.87
2018-09-21T08:46:00.332Z,46.17
2018-09-21T08:48:29.190Z,45.58
2018-09-21T08:50:58.047Z,46.33
2018-09-21T08:53:26.915Z,45.71
2018-09-21T08:55:55.772Z,47.55
2018-09-21T08:58:24.640Z,46.14
2018-09-21T09:00:53.593Z,46.01
2018-09-21T09:03:22.580Z,45.10
2018-09-21T09:05:52.943Z,46.55
2018-09-21T09:08:23.252Z,46.40
2018-09-21T09:10:52.257Z,46.36
2018-09-21T09:13:21.446Z,45.27
2018-09-21T09:15:51.069Z,45.80
2018-09-21T09:18:20.239Z,46.30
2018-09-21T09:20:49.468Z,47.42
2018-09-21T09:23:18.528Z,45.32
2018-09-21T09:25:47.377Z,44.19
2018-09-21T09:28:16.292Z,43.18
2018-09-21T09:30:45.261Z,45.37
2018-09-21T09:33:14.231Z,42.91
2018-09-21T09:35:43.161Z,44.98
2018-09-21T09:38:12.055Z,42.51
2018-09-21T09:40:40.934Z,42.45
2018-09-21T09:43:09.871Z,42.64
2018-09-21T09:45:38.918Z,41.63
2018-09-21T09:48:07.982Z,40.07
2018-09-21T09:50:36.852Z,41.42
2018-09-21T09:53:06.212Z,41.94
2018-09-21T09:55:35.105Z,39.02
2018-09-21T09:58:04.084Z,41.48
2018-09-21T10:00:38.170Z,41.60
2018-09-21T10:03:07.186Z,40.16
2018-09-21T10:05:36.173Z,41.43
2018-09-21T10:08:05.825Z,39.61
2018-09-21T10:10:34.685Z,40.99
2018-09-21T10:13:03.618Z,40.99
2018-09-21T10:15:32.518Z,42.56
2018-09-21T10:18:01.459Z,42.37
2018-09-21T10:20:30.426Z,41.53
2018-09-21T10:22:59.320Z,41.51
2018-09-21T10:25:28.875Z,41.87
2018-09-21T10:27:58.043Z,41.49
2018-09-21T10:30:27.210Z,41.34
2018-09-21T10:32:56.097Z,40.00
2018-09-21T10:35:25.482Z,40.37
2018-09-21T10:37:54.670Z,40.80
2018-09-21T10:40:23.815Z,42.34
2018-09-21T10:42:52.704Z,42.67
2018-09-21T10:45:21.829Z,41.69
2018-09-21T10:47:50.960Z,43.54
2018-09-21T10:50:19.916Z,43.66
2018-09-21T10:52:48.820Z,43.60
2018-09-21T10:55:17.717Z,44.10
2018-09-21T10:57:46.672Z,43.85
2018-09-21T11:00:15.607Z,42.49
2018-09-21T11:02:44.534Z,44.27
2018-09-21T11:05:13.476Z,44.08
2018-09-21T11:07:42.472Z,43.73
2018-09-21T11:10:11.426Z,43.88
2018-09-21T11:12:40.344Z,43.15
2018-09-21T11:15:09.296Z,44.56
2018-09-21T11:17:38.181Z,44.03
2018-09-21T11:20:07.092Z,43.75
2018-09-21T11:22:36.009Z,44.02
2018-09-21T11:25:04.960Z,43.60
2018-09-21T11:27:33.858Z,43.75
2018-09-21T11:30:02.812Z,43.54
2018-09-21T11:32:31.723Z,44.32
2018-09-21T11:35:00.602Z,44.70
2018-09-21T11:37:30.041Z,44.95
2018-09-21T11:39:58.964Z,44.08
2018-09-21T11:42:27.839Z,44.98
2018-09-21T11:44:56.737Z,44.66
2018-09-21T11:47:25.709Z,45.09
2018-09-21T11:49:54.606Z,45.91
2018-09-21T11:52:23.513Z,44.86
2018-09-21T11:54:52.428Z,44.46
2018-09-21T11:57:21.323Z,45.32
2018-09-21T11:59:50.404Z,45.05
2018-09-21T12:02:19.352Z,46.02
2018-09-21T12:04:48.381Z,46.44
2018-09-21T12:07:17.756Z,45.77
2018-09-21T12:09:46.649Z,46.09
2018-09-21T12:12:15.828Z,46.79
2018-09-21T12:14:44.785Z,46.38
2018-09-21T12:17:13.716Z,45.59
2018-09-21T12:19:42.639Z,46.29
2018-09-21T12:22:11.848Z,45.81
2018-09-21T12:24:40.833Z,46.57
2018-09-21T12:27:09.808Z,47.47
2018-09-21T12:29:38.752Z,46.88
2018-09-21T12:32:07.679Z,46.01
2018-09-21T12:34:36.570Z,47.93
2018-09-21T12:37:06.397Z,46.65
2018-09-21T12:39:35.296Z,47.98
2018-09-21T12:42:04.232Z,46.39
2018-09-21T12:44:33.203Z,45.96
2018-09-21T12:47:02.054Z,47.60
2018-09-21T12:49:32.228Z,46.85
2018-09-21T12:52:01.197Z,46.64
2018-09-21T12:54:36.883Z,46.92
2018-09-21T12:57:05.809Z,46.69
2018-09-21T12:59:34.802Z,46.28
2018-09-21T13:02:03.747Z,46.76
2018-09-21T13:04:32.635Z,47.08
2018-09-21T13:07:01.500Z,45.96
2018-09-21T13:09:30.864Z,45.73
2018-09-21T13:11:59.895Z,46.88
2018-09-21T13:14:29.713Z,47.66
2018-09-21T13:16:58.572Z,46.29
2018-09-21T13:19:28.016Z,46.97
2018-09-21T13:21:56.936Z,46.41
2018-09-21T13:24:26.105Z,45.89
2018-09-21T13:26:55.128Z,46.17
2018-09-21T13:29:23.949Z,46.21
2018-09-21T13:31:52.866Z,46.92
2018-09-21T13:34:21.769Z,46.80
2018-09-21T13:36:50.672Z,47.49
2018-09-21T13:39:19.583Z,47.30
2018-09-21T13:41:48.579Z,48.94
2018-09-21T13:44:17.509Z,47.67
2018-09-21T13:46:46.829Z,47.13
2018-09-21T13:49:15.704Z,46.41
2018-09-21T13:51:44.730Z,46.71
2018-09-21T13:54:13.651Z,46.76
2018-09-21T13:56:42.550Z,46.20
2018-09-21T13:59:11.439Z,45.82
2018-09-21T14:01:44.617Z,46.60
2018-09-21T14:04:13.531Z,46.47
2018-09-21T14:06:45.584Z,46.26
2018-09-21T14:09:14.476Z,45.99
2018-09-21T14:11:43.378Z,46.97
2018-09-21T14:14:16.676Z,46.29
2018-09-21T14:16:45.667Z,45.48
2018-09-21T14:19:14.646Z,44.66
2018-09-21T14:21:43.577Z,44.87
2018-09-21T14:24:12.436Z,43.97
2018-09-21T14:26:41.383Z,42.67
2018-09-21T14:29:10.591Z,43.96
2018-09-21T14:31:39.691Z,42.79
2018-09-21T14:34:09.323Z,43.58
2018-09-21T14:36:38.312Z,43.55
2018-09-21T14:39:09.820Z,43.73
2018-09-21T14:41:38.840Z,43.95
2018-09-21T14:44:08.266Z,43.25
2018-09-21T14:46:37.587Z,42.67
2018-09-21T14:49:06.559Z,42.78
2018-09-21T14:51:35.464Z,42.96
2018-09-21T14:54:04.516Z,43.20
2018-09-21T14:56:33.940Z,43.54
2018-09-21T14:59:03.311Z,43.43
2018-09-21T15:01:32.591Z,43.11
2018-09-21T15:04:01.871Z,42.86
2018-09-21T15:06:30.789Z,43.42
2018-09-21T15:08:59.688Z,43.56
2018-09-21T15:11:28.659Z,42.29
2018-09-21T15:13:57.636Z,42.93
2018-09-21T15:16:26.550Z,42.39
2018-09-21T15:18:55.488Z,42.57
2018-09-21T15:21:24.391Z,42.48
2018-09-21T15:23:53.348Z,42.58
2018-09-21T15:26:22.240Z,42.84
2018-09-21T15:28:51.113Z,42.29
2018-09-21T15:31:20.157Z,42.77
2018-09-21T15:33:49.455Z,43.26
2018-09-21T15:36:18.487Z,43.09
2018-09-21T15:38:47.480Z,43.41
2018-09-21T15:41:16.812Z,44.23
2018-09-21T15:43:46.661Z,43.56
2018-09-21T15:46:17.428Z,45.54
2018-09-21T15:48:47.365Z,45.08
2018-09-21T15:51:16.853Z,45.65
2018-09-21T15:53:46.936Z,45.51
2018-09-21T15:56:16.235Z,46.21
2018-09-21T15:58:45.551Z,45.96
2018-09-21T16:01:14.846Z,46.54
2018-09-21T16:03:43.825Z,46.84
2018-09-21T16:06:12.799Z,48.35
2018-09-21T16:08:41.790Z,49.80
2018-09-21T16:11:10.712Z,53.74
2018-09-21T16:13:40.100Z,59.38
2018-09-21T16:16:09.245Z,62.83
2018-09-21T16:18:38.214Z,67.10
2018-09-21T16:21:07.705Z,68.43
2018-09-21T16:23:36.823Z,70.75
2018-09-21T16:26:06.083Z,72.10
2018-09-21T16:28:35.324Z,74.30
2018-09-21T16:31:04.780Z,74.65
2018-09-21T16:33:34.104Z,74.72
2018-09-21T16:36:03.333Z,74.59
2018-09-21T16:38:32.265Z,72.55
2018-09-21T16:41:01.224Z,73.94
2018-09-21T16:43:30.417Z,72.94
2018-09-21T16:45:59.356Z,71.40
2018-09-21T16:48:28.332Z,71.26
2018-09-21T16:50:57.323Z,72.33
2018-09-21T16:53:26.283Z,70.52
2018-09-21T16:55:55.593Z,68.88
2018-09-21T16:58:24.683Z,68.15
2018-09-21T17:00:54.155Z,69.51
2018-09-21T17:03:23.340Z,72.55
2018-09-21T17:05:53.101Z,74.97
2018-09-21T17:08:22.312Z,71.21
2018-09-21T17:10:51.503Z,71.52
2018-09-21T17:13:20.522Z,71.58
2018-09-21T17:15:49.458Z,71.37
2018-09-21T17:18:18.685Z,72.48
2018-09-21T17:20:47.689Z,73.39
2018-09-21T17:23:17.047Z,70.54
2018-09-21T17:25:46.397Z,72.91
2018-09-21T17:28:16.247Z,71.93
2018-09-21T17:30:45.661Z,69.99
2018-09-21T17:33:14.765Z,71.32
2018-09-21T17:35:44.108Z,71.16
2018-09-21T17:38:13.460Z,74.16
2018-09-21T17:40:42.871Z,74.76
2018-09-21T17:43:12.368Z,75.43
2018-09-21T17:45:41.752Z,76.53
2018-09-21T17:48:11.061Z,77.12
2018-09-21T17:50:40.263Z,78.89
2018-09-21T17:53:09.512Z,80.04
2018-09-21T17:55:38.875Z,79.99
2018-09-21T17:58:08.104Z,80.83
2018-09-21T18:00:37.399Z,80.45
2018-09-21T18:03:07.094Z,82.08
2018-09-21T18:05:36.395Z,81.98
2018-09-21T18:08:05.760Z,82.36
2018-09-21T18:10:35.016Z,82.41
2018-09-21T18:13:04.456Z,82.07
2018-09-21T18:15:33.712Z,82.04
2018-09-21T18:18:03.120Z,82.30
2018-09-21T18:20:32.324Z,82.00
2018-09-21T18:23:01.718Z,82.51
2018-09-21T18:25:31.078Z,82.03
2018-09-21T18:27:59.956Z,81.74
2018-09-21T18:30:29.084Z,81.00
2018-09-21T18:32:58.256Z,81.00
2018-09-21T18:35:33.503Z,81.87
2018-09-21T18:38:02.406Z,82.72
2018-09-21T18:40:31.365Z,81.82
2018-09-21T18:43:00.259Z,81.68
2018-09-21T18:45:29.268Z,81.79
2018-09-21T18:47:58.232Z,82.61
2018-09-21T18:50:27.182Z,82.14
2018-09-21T18:52:56.428Z,82.98
2018-09-21T18:55:25.363Z,83.41
2018-09-21T18:57:54.357Z,83.76
2018-09-21T19:00:23.304Z,83.28
2018-09-21T19:02:52.251Z,83.93
2018-09-21T19:05:21.281Z,84.00
2018-09-21T19:07:50.189Z,84.30
2018-09-21T19:10:19.067Z,83.76
2018-09-21T19:12:47.989Z,83.46
2018-09-21T19:15:16.863Z,83.39
2018-09-21T19:17:45.768Z,84.21
2018-09-21T19:20:14.667Z,84.58
2018-09-21T19:22:43.691Z,84.27
2018-09-21T19:25:12.586Z,84.27
2018-09-21T19:27:41.584Z,84.10
2018-09-21T19:30:10.521Z,85.09
2018-09-21T19:32:39.428Z,83.84
2018-09-21T19:35:08.377Z,84.24
2018-09-21T19:37:37.308Z,83.56
2018-09-21T19:40:06.329Z,83.29
2018-09-21T19:42:35.253Z,83.33
2018-09-21T19:45:04.296Z,82.99
2018-09-21T19:47:33.135Z,82.87
2018-09-21T19:50:02.024Z,82.00
2018-09-21T19:52:30.888Z,81.79
2018-09-21T19:55:00.005Z,81.94
2018-09-21T19:57:28.860Z,81.45
2018-09-21T19:59:57.810Z,81.29
2018-09-21T20:02:26.781Z,80.81
2018-09-21T20:04:55.822Z,80.82
2018-09-21T20:07:24.703Z,81.26
2018-09-21T20:09:53.604Z,81.20
2018-09-21T20:12:22.552Z,81.18
2018-09-21T20:14:51.429Z,80.68
2018-09-21T20:17:20.290Z,80.26
2018-09-21T20:19:49.194Z,80.99
2018-09-21T20:22:18.268Z,79.28
2018-09-21T20:24:47.143Z,79.27
2018-09-21T20:27:16.032Z,78.80
2018-09-21T20:29:44.908Z,78.85
2018-09-21T20:32:18.896Z,79.32
2018-09-21T20:34:47.835Z,79.17
2018-09-21T20:37:16.801Z,79.01
2018-09-21T20:39:45.696Z,78.67
2018-09-21T20:42:14.588Z,77.56
2018-09-21T20:44:43.542Z,78.11
2018-09-21T20:47:12.401Z,77.35
2018-09-21T20:49:41.376Z,77.87
2018-09-21T20:52:10.275Z,78.05
2018-09-21T20:54:39.151Z,77.04
2018-09-21T20:57:08.066Z,76.06
2018-09-21T20:59:37.149Z,75.78
2018-09-21T21:02:06.087Z,75.72
2018-09-21T21:04:35.043Z,75.53
2018-09-21T21:07:04.074Z,76.12
2018-09-21T21:09:33.007Z,75.25
2018-09-21T21:12:01.911Z,74.86
2018-09-21T21:14:31.069Z,74.44
2018-09-21T21:17:00.035Z,73.64
2018-09-21T21:19:28.988Z,74.74
2018-09-21T21:21:57.927Z,73.24
2018-09-21T21:24:26.781Z,74.11
2018-09-21T21:26:55.782Z,73.30
2018-09-21T21:29:24.856Z,73.25
2018-09-21T21:31:54.387Z,73.57
2018-09-21T21:34:23.411Z,74.14
2018-09-21T21:36:52.678Z,73.46
2018-09-21T21:39:21.756Z,74.75
2018-09-21T21:41:51.925Z,73.74
2018-09-21T21:44:21.198Z,73.40
2018-09-21T21:46:50.347Z,73.95
2018-09-21T21:49:19.441Z,73.65
2018-09-21T21:51:48.348Z,72.36
2018-09-21T21:54:17.528Z,72.40
2018-09-21T21:56:47.971Z,73.00
2018-09-21T21:59:17.239Z,71.58
2018-09-21T22:01:47.640Z,71.69
2018-09-21T22:04:17.937Z,72.50
2018-09-21T22:06:48.293Z,71.83
2018-09-21T22:09:17.357Z,71.61
2018-09-21T22:11:51.324Z,71.75
2018-09-21T22:14:23.891Z,71.13
2018-09-21T22:16:53.116Z,70.73
2018-09-21T22:19:22.233Z,71.69
2018-09-21T22:21:51.145Z,71.48
2018-09-21T22:24:20.108Z,70.19
2018-09-21T22:26:49.049Z,70.81
2018-09-21T22:29:17.964Z,69.79
2018-09-21T22:31:47.056Z,70.36
2018-09-21T22:34:15.958Z,70.25
2018-09-21T22:36:46.637Z,70.16
2018-09-21T22:39:15.636Z,69.98
2018-09-21T22:42:19.723Z,70.72
2018-09-21T22:44:49.553Z,69.96
2018-09-21T22:47:19.002Z,69.93
2018-09-21T22:49:48.340Z,70.12
2018-09-21T22:52:17.631Z,71.01
2018-09-21T22:54:47.151Z,71.50
2018-09-21T22:57:16.540Z,71.79
2018-09-21T22:59:45.837Z,71.68
2018-09-21T23:02:15.144Z,71.96
2018-09-21T23:04:44.387Z,72.12
2018-09-21T23:07:13.698Z,72.29
2018-09-21T23:09:43.020Z,72.32
2018-09-21T23:12:12.999Z,73.15
2018-09-21T23:14:42.333Z,73.03
2018-09-21T23:17:11.652Z,74.15
2018-09-21T23:19:41.025Z,74.81
2018-09-21T23:22:10.369Z,75.33
2018-09-21T23:24:39.662Z,75.53
2018-09-21T23:27:08.647Z,75.35
2018-09-21T23:29:37.532Z,76.07
2018-09-21T23:32:06.447Z,76.06
2018-09-21T23:34:35.608Z,77.12
2018-09-21T23:37:04.545Z,76.52
2018-09-21T23:39:33.412Z,76.84
2018-09-21T23:42:02.327Z,77.14
2018-09-21T23:44:31.192Z,77.00
2018-09-21T23:47:00.060Z,76.76
2018-09-21T23:49:28.923Z,77.01
2018-09-21T23:51:57.820Z,77.26
2018-09-21T23:54:26.771Z,78.10
2018-09-21T23:56:55.659Z,78.20
2018-09-21T23:59:24.563Z,78.22
